createdAt,value
2022-08-07T00:00:35.912Z,1013.84
2022-08-07T00:02:35.467Z,1013.82
2022-08-07T00:02:41.641Z,1013.81
2022-08-07T00:03:36.828Z,1013.75
2022-08-07T00:04:35.900Z,1013.79
2022-08-07T00:05:36.291Z,1013.78
2022-08-07T00:06:35.853Z,1013.83
2022-08-07T00:07:39.218Z,1013.74
2022-08-07T00:08:35.808Z,1013.77
2022-08-07T00:09:35.932Z,1013.78
2022-08-07T00:10:35.783Z,1013.77
2022-08-07T00:11:35.768Z,1013.80
2022-08-07T00:12:35.755Z,1013.75
2022-08-07T00:13:35.749Z,1013.78
2022-08-07T00:14:35.734Z,1013.75
2022-08-07T00:15:38.455Z,1013.77
2022-08-07T00:16:35.706Z,1013.84
2022-08-07T00:17:35.889Z,1013.79
2022-08-07T00:18:35.759Z,1013.80
2022-08-07T00:20:00.399Z,1013.78
2022-08-07T00:20:35.685Z,1013.78
2022-08-07T00:21:56.612Z,1013.74
2022-08-07T00:22:35.805Z,1013.75
2022-08-07T00:23:35.624Z,1013.77
2022-08-07T00:24:35.668Z,1013.76
2022-08-07T00:25:37.392Z,1013.73
2022-08-07T00:26:59.295Z,1013.75
2022-08-07T00:27:35.778Z,1013.73
2022-08-07T00:28:35.563Z,1013.72
2022-08-07T00:29:36.957Z,1013.68
2022-08-07T00:30:35.570Z,1013.68
2022-08-07T00:31:37.257Z,1013.66
2022-08-07T00:32:35.517Z,1013.65
2022-08-07T00:33:35.552Z,1013.63
2022-08-07T00:34:35.768Z,1013.65
2022-08-07T00:35:36.752Z,1013.62
2022-08-07T00:36:35.469Z,1013.67
2022-08-07T00:37:47.796Z,1013.62
2022-08-07T00:38:35.445Z,1013.65
2022-08-07T00:39:35.463Z,1013.65
2022-08-07T00:40:39.088Z,1013.59
2022-08-07T00:41:37.433Z,1013.64
2022-08-07T00:42:36.574Z,1013.58
2022-08-07T00:44:00.948Z,1013.62
2022-08-07T00:44:35.366Z,1013.64
2022-08-07T00:45:35.392Z,1013.60
2022-08-07T00:46:35.343Z,1013.62
2022-08-07T00:48:09.070Z,1013.59
2022-08-07T00:48:35.326Z,1013.63
2022-08-07T00:50:20.892Z,1013.61
2022-08-07T00:50:50.796Z,1013.65
2022-08-07T00:51:57.098Z,1013.59
2022-08-07T00:52:36.710Z,1013.60
2022-08-07T00:53:38.808Z,1013.61
2022-08-07T00:54:35.248Z,1013.62
2022-08-07T00:56:02.117Z,1013.56
2022-08-07T00:56:35.225Z,1013.58
2022-08-07T00:57:35.212Z,1013.57
2022-08-07T00:58:35.195Z,1013.56
2022-08-07T00:59:36.128Z,1013.60
2022-08-07T01:00:35.171Z,1013.62
2022-08-07T01:01:44.216Z,1013.60
2022-08-07T01:02:35.144Z,1013.58
2022-08-07T01:03:54.736Z,1013.59
2022-08-07T01:04:40.318Z,1013.60
2022-08-07T01:05:35.111Z,1013.58
2022-08-07T01:06:35.096Z,1013.61
2022-08-07T01:07:36.001Z,1013.62
2022-08-07T01:08:35.069Z,1013.62
2022-08-07T01:10:02.388Z,1013.57
2022-08-07T01:10:35.046Z,1013.56
2022-08-07T01:12:09.622Z,1013.58
2022-08-07T01:12:35.028Z,1013.56
2022-08-07T01:13:35.181Z,1013.58
2022-08-07T01:14:36.952Z,1013.56
2022-08-07T01:16:00.646Z,1013.54
2022-08-07T01:16:34.969Z,1013.52
2022-08-07T01:17:34.975Z,1013.49
2022-08-07T01:18:34.944Z,1013.48
2022-08-07T01:19:34.936Z,1013.48
2022-08-07T01:20:34.920Z,1013.51
2022-08-07T01:21:36.903Z,1013.50
2022-08-07T01:22:34.896Z,1013.48
2022-08-07T01:23:36.861Z,1013.48
2022-08-07T01:24:34.867Z,1013.45
2022-08-07T01:25:40.475Z,1013.45
2022-08-07T01:26:34.846Z,1013.45
2022-08-07T01:27:35.238Z,1013.47
2022-08-07T01:28:34.829Z,1013.48
2022-08-07T01:29:34.815Z,1013.50
2022-08-07T01:30:34.795Z,1013.47
2022-08-07T01:31:42.697Z,1013.45
2022-08-07T01:32:34.808Z,1013.46
2022-08-07T01:33:55.119Z,1013.45
2022-08-07T01:34:34.748Z,1013.46
2022-08-07T01:35:36.949Z,1013.42
2022-08-07T01:36:36.296Z,1013.44
2022-08-07T01:37:34.737Z,1013.40
2022-08-07T01:38:34.698Z,1013.43
2022-08-07T01:39:39.678Z,1013.41
2022-08-07T01:40:34.699Z,1013.42
2022-08-07T01:41:34.659Z,1013.45
2022-08-07T01:42:38.411Z,1013.39
2022-08-07T01:43:38.267Z,1013.35
2022-08-07T01:44:34.650Z,1013.35
2022-08-07T01:45:37.278Z,1013.38
2022-08-07T01:46:34.594Z,1013.38
2022-08-07T01:48:18.892Z,1013.38
2022-08-07T01:48:34.700Z,1013.35
2022-08-07T01:49:34.613Z,1013.35
2022-08-07T01:50:34.569Z,1013.33
2022-08-07T01:52:03.158Z,1013.32
2022-08-07T01:52:34.521Z,1013.33
2022-08-07T01:54:09.685Z,1013.34
2022-08-07T01:54:36.872Z,1013.32
2022-08-07T01:55:34.491Z,1013.32
2022-08-07T01:56:34.470Z,1013.32
2022-08-07T01:58:06.304Z,1013.38
2022-08-07T01:58:34.525Z,1013.34
2022-08-07T01:59:34.433Z,1013.32
2022-08-07T02:00:34.422Z,1013.35
2022-08-07T02:02:00.065Z,1013.30
2022-08-07T02:03:18.324Z,1013.31
2022-08-07T02:03:48.919Z,1013.31
2022-08-07T02:04:34.381Z,1013.30
2022-08-07T02:05:43.426Z,1013.27
2022-08-07T02:06:34.350Z,1013.26
2022-08-07T02:07:36.200Z,1013.25
2022-08-07T02:08:34.316Z,1013.26
2022-08-07T02:09:52.361Z,1013.21
2022-08-07T02:10:34.331Z,1013.22
2022-08-07T02:12:02.975Z,1013.22
2022-08-07T02:12:34.262Z,1013.22
2022-08-07T02:13:56.490Z,1013.19
2022-08-07T02:14:40.159Z,1013.19
2022-08-07T02:15:34.266Z,1013.21
2022-08-07T02:16:34.232Z,1013.19
2022-08-07T02:17:34.599Z,1013.22
2022-08-07T02:18:34.187Z,1013.21
2022-08-07T02:20:06.670Z,1013.17
2022-08-07T02:20:34.161Z,1013.21
2022-08-07T02:21:55.402Z,1013.21
2022-08-07T02:22:34.133Z,1013.17
2022-08-07T02:23:36.025Z,1013.18
2022-08-07T02:24:34.110Z,1013.16
2022-08-07T02:26:31.694Z,1013.17
2022-08-07T02:26:34.617Z,1013.19
2022-08-07T02:27:34.605Z,1013.16
2022-08-07T02:28:34.060Z,1013.11
2022-08-07T02:29:36.735Z,1013.15
2022-08-07T02:30:34.040Z,1013.17
2022-08-07T02:31:34.024Z,1013.13
2022-08-07T02:32:34.006Z,1013.12
2022-08-07T02:34:01.925Z,1013.14
2022-08-07T02:34:34.015Z,1013.13
2022-08-07T02:36:30.727Z,1013.15
2022-08-07T02:36:34.036Z,1013.13
2022-08-07T02:37:35.904Z,1013.14
2022-08-07T02:38:33.927Z,1013.13
2022-08-07T02:39:43.145Z,1013.14
2022-08-07T02:40:35.362Z,1013.11
2022-08-07T02:41:37.350Z,1013.10
2022-08-07T02:42:33.881Z,1013.11
2022-08-07T02:43:33.866Z,1013.12
2022-08-07T02:44:34.392Z,1013.09
2022-08-07T02:45:58.209Z,1013.09
2022-08-07T02:46:33.821Z,1013.11
2022-08-07T02:47:45.021Z,1013.10
2022-08-07T02:48:34.442Z,1013.16
2022-08-07T02:49:57.907Z,1013.14
2022-08-07T02:50:33.775Z,1013.15
2022-08-07T02:51:42.482Z,1013.14
2022-08-07T02:52:33.750Z,1013.12
2022-08-07T02:53:38.357Z,1013.16
2022-08-07T02:54:33.722Z,1013.13
2022-08-07T02:56:02.556Z,1013.13
2022-08-07T02:56:33.696Z,1013.09
2022-08-07T02:57:34.992Z,1013.09
2022-08-07T02:58:33.941Z,1013.09
2022-08-07T02:59:33.653Z,1013.04
2022-08-07T03:00:33.644Z,1013.04
2022-08-07T03:01:35.130Z,1013.02
2022-08-07T03:02:33.624Z,1013.05
2022-08-07T03:03:49.156Z,1013.03
2022-08-07T03:04:33.618Z,1013.02
2022-08-07T03:05:35.707Z,1013.04
2022-08-07T03:06:34.825Z,1013.08
2022-08-07T03:07:43.102Z,1013.08
2022-08-07T03:08:33.551Z,1013.09
2022-08-07T03:09:43.527Z,1013.11
2022-08-07T03:10:33.516Z,1013.12
2022-08-07T03:11:38.876Z,1013.08
2022-08-07T03:12:33.484Z,1013.11
2022-08-07T03:13:39.334Z,1013.13
2022-08-07T03:14:33.484Z,1013.16
2022-08-07T03:15:56.205Z,1013.14
2022-08-07T03:16:33.468Z,1013.12
2022-08-07T03:17:36.311Z,1013.15
2022-08-07T03:18:34.545Z,1013.16
2022-08-07T03:19:37.137Z,1013.19
2022-08-07T03:20:33.382Z,1013.16
2022-08-07T03:21:33.490Z,1013.17
2022-08-07T03:22:33.354Z,1013.16
2022-08-07T03:23:34.051Z,1013.16
2022-08-07T03:24:33.346Z,1013.13
2022-08-07T03:25:40.495Z,1013.14
2022-08-07T03:26:33.302Z,1013.20
2022-08-07T03:28:08.888Z,1013.19
2022-08-07T03:28:37.151Z,1013.24
2022-08-07T03:29:33.714Z,1013.22
2022-08-07T03:30:33.246Z,1013.21
2022-08-07T03:31:43.151Z,1013.19
2022-08-07T03:32:33.218Z,1013.21
2022-08-07T03:33:40.241Z,1013.21
2022-08-07T03:34:33.192Z,1013.21
2022-08-07T03:35:37.891Z,1013.22
2022-08-07T03:36:33.198Z,1013.23
2022-08-07T03:37:37.561Z,1013.26
2022-08-07T03:38:33.450Z,1013.23
2022-08-07T03:39:45.890Z,1013.23
2022-08-07T03:40:36.499Z,1013.21
2022-08-07T03:41:42.059Z,1013.25
2022-08-07T03:42:33.087Z,1013.24
2022-08-07T03:43:33.151Z,1013.20
2022-08-07T03:44:34.461Z,1013.23
2022-08-07T03:45:33.045Z,1013.22
2022-08-07T03:46:33.040Z,1013.25
2022-08-07T03:47:45.129Z,1013.25
2022-08-07T03:48:33.008Z,1013.24
2022-08-07T03:49:32.991Z,1013.21
2022-08-07T03:50:33.008Z,1013.26
2022-08-07T03:51:47.814Z,1013.23
2022-08-07T03:52:32.953Z,1013.24
2022-08-07T03:54:05.666Z,1013.23
2022-08-07T03:54:53.937Z,1013.23
2022-08-07T03:55:58.441Z,1013.22
2022-08-07T03:56:34.367Z,1013.24
2022-08-07T03:58:34.194Z,1013.22
2022-08-07T03:59:08.325Z,1013.28
2022-08-07T03:59:32.858Z,1013.26
2022-08-07T04:00:33.643Z,1013.26
2022-08-07T04:01:32.853Z,1013.29
2022-08-07T04:02:32.819Z,1013.29
2022-08-07T04:03:49.985Z,1013.26
2022-08-07T04:04:32.985Z,1013.27
2022-08-07T04:05:40.322Z,1013.28
2022-08-07T04:06:37.098Z,1013.30
2022-08-07T04:07:41.626Z,1013.30
2022-08-07T04:08:32.768Z,1013.27
2022-08-07T04:09:44.574Z,1013.27
2022-08-07T04:10:32.711Z,1013.27
2022-08-07T04:12:27.804Z,1013.28
2022-08-07T04:12:32.709Z,1013.30
2022-08-07T04:14:11.025Z,1013.25
2022-08-07T04:14:38.884Z,1013.25
2022-08-07T04:15:32.642Z,1013.28
2022-08-07T04:16:32.693Z,1013.25
2022-08-07T04:17:32.702Z,1013.21
2022-08-07T04:18:59.001Z,1013.24
2022-08-07T04:19:51.065Z,1013.25
2022-08-07T04:20:35.128Z,1013.26
2022-08-07T04:21:33.391Z,1013.27
2022-08-07T04:22:32.553Z,1013.26
2022-08-07T04:23:43.265Z,1013.21
2022-08-07T04:24:38.895Z,1013.27
2022-08-07T04:25:35.817Z,1013.29
2022-08-07T04:26:32.495Z,1013.32
2022-08-07T04:27:35.972Z,1013.31
2022-08-07T04:28:32.472Z,1013.36
2022-08-07T04:29:48.893Z,1013.28
2022-08-07T04:30:39.266Z,1013.29
2022-08-07T04:31:51.220Z,1013.29
2022-08-07T04:32:34.662Z,1013.32
2022-08-07T04:33:32.396Z,1013.34
2022-08-07T04:34:33.264Z,1013.35
2022-08-07T04:35:35.525Z,1013.32
2022-08-07T04:36:32.356Z,1013.30
2022-08-07T04:38:00.967Z,1013.31
2022-08-07T04:38:32.333Z,1013.33
2022-08-07T04:39:35.858Z,1013.35
2022-08-07T04:40:32.556Z,1013.34
2022-08-07T04:41:32.286Z,1013.30
2022-08-07T04:42:32.285Z,1013.36
2022-08-07T04:44:11.722Z,1013.29
2022-08-07T04:44:32.258Z,1013.34
2022-08-07T04:45:57.369Z,1013.37
2022-08-07T04:46:34.684Z,1013.37
2022-08-07T04:48:00.428Z,1013.36
2022-08-07T04:48:32.199Z,1013.34
2022-08-07T04:49:37.513Z,1013.34
2022-08-07T04:50:32.169Z,1013.32
2022-08-07T04:51:32.216Z,1013.34
2022-08-07T04:52:32.140Z,1013.27
2022-08-07T04:54:02.048Z,1013.29
2022-08-07T04:54:32.120Z,1013.29
2022-08-07T04:58:12.050Z,1013.29
2022-08-07T04:58:12.863Z,1013.28
2022-08-07T04:58:26.116Z,1013.30
2022-08-07T04:58:49.562Z,1013.27
2022-08-07T05:00:12.245Z,1013.30
2022-08-07T05:00:32.572Z,1013.27
2022-08-07T05:01:32.062Z,1013.29
2022-08-07T05:02:32.067Z,1013.28
2022-08-07T05:04:00.519Z,1013.25
2022-08-07T05:04:31.978Z,1013.27
2022-08-07T05:05:52.945Z,1013.28
2022-08-07T05:06:43.315Z,1013.31
2022-08-07T05:07:36.891Z,1013.28
2022-08-07T05:09:00.213Z,1013.30
2022-08-07T05:09:45.488Z,1013.29
2022-08-07T05:10:31.894Z,1013.29
2022-08-07T05:11:57.937Z,1013.29
2022-08-07T05:12:31.903Z,1013.30
2022-08-07T05:14:52.324Z,1013.32
2022-08-07T05:14:53.975Z,1013.33
2022-08-07T05:15:31.826Z,1013.36
2022-08-07T05:16:31.815Z,1013.37
2022-08-07T05:17:51.568Z,1013.39
2022-08-07T05:18:32.154Z,1013.38
2022-08-07T05:19:44.044Z,1013.33
2022-08-07T05:20:31.760Z,1013.31
2022-08-07T05:21:58.982Z,1013.31
2022-08-07T05:22:31.760Z,1013.31
2022-08-07T05:23:31.716Z,1013.28
2022-08-07T05:24:40.498Z,1013.28
2022-08-07T05:26:10.418Z,1013.26
2022-08-07T05:26:31.682Z,1013.34
2022-08-07T05:28:03.029Z,1013.34
2022-08-07T05:28:32.103Z,1013.36
2022-08-07T05:29:48.083Z,1013.31
2022-08-07T05:30:32.954Z,1013.34
2022-08-07T05:31:34.594Z,1013.33
2022-08-07T05:32:31.599Z,1013.34
2022-08-07T05:33:31.584Z,1013.36
2022-08-07T05:34:31.632Z,1013.36
2022-08-07T05:35:33.382Z,1013.41
2022-08-07T05:36:32.439Z,1013.40
2022-08-07T05:37:31.765Z,1013.40
2022-08-07T05:38:58.046Z,1013.39
2022-08-07T05:40:17.278Z,1013.46
2022-08-07T05:40:31.591Z,1013.43
2022-08-07T05:42:00.261Z,1013.42
2022-08-07T05:42:33.442Z,1013.47
2022-08-07T05:43:50.004Z,1013.47
2022-08-07T05:44:31.444Z,1013.47
2022-08-07T05:45:47.517Z,1013.50
2022-08-07T05:46:31.413Z,1013.52
2022-08-07T05:47:38.100Z,1013.49
2022-08-07T05:48:31.396Z,1013.47
2022-08-07T05:49:40.445Z,1013.51
2022-08-07T05:50:31.368Z,1013.56
2022-08-07T05:51:33.229Z,1013.54
2022-08-07T05:52:32.732Z,1013.55
2022-08-07T05:54:12.731Z,1013.57
2022-08-07T05:54:44.564Z,1013.54
2022-08-07T05:56:02.962Z,1013.57
2022-08-07T05:56:31.287Z,1013.58
2022-08-07T05:57:34.659Z,1013.54
2022-08-07T05:58:36.902Z,1013.58
2022-08-07T05:59:47.232Z,1013.61
2022-08-07T06:00:31.233Z,1013.62
2022-08-07T06:01:35.882Z,1013.58
2022-08-07T06:02:31.244Z,1013.61
2022-08-07T06:03:53.500Z,1013.60
2022-08-07T06:04:31.182Z,1013.59
2022-08-07T06:05:31.173Z,1013.61
2022-08-07T06:06:32.683Z,1013.65
2022-08-07T06:08:14.391Z,1013.67
2022-08-07T06:08:31.666Z,1013.64
2022-08-07T06:09:44.819Z,1013.65
2022-08-07T06:10:31.104Z,1013.70
2022-08-07T06:11:31.115Z,1013.67
2022-08-07T06:12:33.240Z,1013.66
2022-08-07T06:14:10.530Z,1013.70
2022-08-07T06:14:31.050Z,1013.69
2022-08-07T06:15:39.210Z,1013.73
2022-08-07T06:16:31.026Z,1013.71
2022-08-07T06:17:31.981Z,1013.71
2022-08-07T06:18:30.997Z,1013.70
2022-08-07T06:19:51.877Z,1013.71
2022-08-07T06:20:38.114Z,1013.67
2022-08-07T06:22:16.687Z,1013.70
2022-08-07T06:22:34.335Z,1013.69
2022-08-07T06:24:37.979Z,1013.70
2022-08-07T06:24:38.657Z,1013.69
2022-08-07T06:25:34.785Z,1013.71
2022-08-07T06:26:30.900Z,1013.73
2022-08-07T06:27:44.224Z,1013.70
2022-08-07T06:28:30.908Z,1013.70
2022-08-07T06:29:30.859Z,1013.68
2022-08-07T06:30:35.481Z,1013.69
2022-08-07T06:31:38.563Z,1013.67
2022-08-07T06:32:32.688Z,1013.66
2022-08-07T06:33:33.216Z,1013.69
2022-08-07T06:34:30.797Z,1013.68
2022-08-07T06:35:45.763Z,1013.69
2022-08-07T06:36:35.141Z,1013.69
2022-08-07T06:37:43.931Z,1013.69
2022-08-07T06:38:30.745Z,1013.66
2022-08-07T06:40:13.135Z,1013.69
2022-08-07T06:40:34.370Z,1013.67
2022-08-07T06:42:02.268Z,1013.64
2022-08-07T06:42:34.879Z,1013.65
2022-08-07T06:43:39.369Z,1013.67
2022-08-07T06:44:33.865Z,1013.60
2022-08-07T06:45:30.663Z,1013.61
2022-08-07T06:46:31.352Z,1013.62
2022-08-07T06:47:47.825Z,1013.58
2022-08-07T06:48:30.622Z,1013.63
2022-08-07T06:49:30.607Z,1013.54
2022-08-07T06:50:30.697Z,1013.59
2022-08-07T06:51:33.579Z,1013.60
2022-08-07T06:52:31.765Z,1013.56
2022-08-07T06:54:11.835Z,1013.56
2022-08-07T06:55:32.640Z,1013.55
2022-08-07T06:55:53.440Z,1013.56
2022-08-07T06:56:30.523Z,1013.55
2022-08-07T06:57:43.723Z,1013.54
2022-08-07T06:58:32.173Z,1013.53
2022-08-07T07:00:11.856Z,1013.51
2022-08-07T07:00:30.559Z,1013.53
2022-08-07T07:01:33.211Z,1013.49
2022-08-07T07:02:53.515Z,1013.50
2022-08-07T07:03:49.033Z,1013.54
2022-08-07T07:04:33.303Z,1013.56
2022-08-07T07:06:04.434Z,1013.55
2022-08-07T07:06:30.418Z,1013.54
2022-08-07T07:08:00.129Z,1013.54
2022-08-07T07:08:31.041Z,1013.59
2022-08-07T07:09:31.426Z,1013.57
2022-08-07T07:10:30.393Z,1013.57
2022-08-07T07:12:07.442Z,1013.57
2022-08-07T07:12:31.570Z,1013.58
2022-08-07T07:13:40.650Z,1013.60
2022-08-07T07:14:30.302Z,1013.62
2022-08-07T07:15:32.699Z,1013.61
2022-08-07T07:16:30.726Z,1013.64
2022-08-07T07:17:38.841Z,1013.57
2022-08-07T07:18:48.163Z,1013.60
2022-08-07T07:19:55.547Z,1013.60
2022-08-07T07:20:30.277Z,1013.62
2022-08-07T07:21:40.366Z,1013.57
2022-08-07T07:22:36.972Z,1013.57
2022-08-07T07:24:08.227Z,1013.54
2022-08-07T07:24:30.232Z,1013.53
2022-08-07T07:26:34.684Z,1013.51
2022-08-07T07:26:35.418Z,1013.52
2022-08-07T07:27:35.571Z,1013.50
2022-08-07T07:29:23.517Z,1013.45
2022-08-07T07:29:57.100Z,1013.51
2022-08-07T07:30:37.779Z,1013.51
2022-08-07T07:31:30.272Z,1013.47
2022-08-07T07:32:30.097Z,1013.46
2022-08-07T07:33:30.081Z,1013.44
2022-08-07T07:34:31.160Z,1013.43
2022-08-07T07:35:33.359Z,1013.42
2022-08-07T07:36:32.664Z,1013.44
2022-08-07T07:37:47.296Z,1013.42
2022-08-07T07:38:30.023Z,1013.40
2022-08-07T07:39:35.840Z,1013.43
2022-08-07T07:40:29.993Z,1013.39
2022-08-07T07:41:30.868Z,1013.36
2022-08-07T07:42:32.732Z,1013.37
2022-08-07T07:43:47.936Z,1013.38
2022-08-07T07:44:29.946Z,1013.32
2022-08-07T07:46:39.799Z,1013.32
2022-08-07T07:46:40.021Z,1013.30
2022-08-07T07:47:29.912Z,1013.22
2022-08-07T07:48:35.375Z,1013.25
2022-08-07T07:50:32.645Z,1013.22
2022-08-07T07:50:38.790Z,1013.21
2022-08-07T07:51:29.914Z,1013.17
2022-08-07T07:52:30.144Z,1013.21
2022-08-07T07:53:29.844Z,1013.23
2022-08-07T07:54:29.832Z,1013.22
2022-08-07T07:55:37.297Z,1013.21
2022-08-07T07:56:31.002Z,1013.20
2022-08-07T07:57:52.777Z,1013.23
2022-08-07T07:58:29.783Z,1013.19
2022-08-07T07:59:52.686Z,1013.16
2022-08-07T08:00:31.583Z,1013.14
2022-08-07T08:02:05.175Z,1013.14
2022-08-07T08:02:34.112Z,1013.14
2022-08-07T08:04:06.481Z,1013.16
2022-08-07T08:04:29.756Z,1013.12
2022-08-07T08:05:50.898Z,1013.18
2022-08-07T08:06:29.689Z,1013.12
2022-08-07T08:07:35.762Z,1013.15
2022-08-07T08:08:35.037Z,1013.16
2022-08-07T08:09:29.918Z,1013.18
2022-08-07T08:10:35.654Z,1013.15
2022-08-07T08:11:59.763Z,1013.19
2022-08-07T08:12:52.315Z,1013.19
2022-08-07T08:13:36.776Z,1013.19
2022-08-07T08:14:29.603Z,1013.20
2022-08-07T08:15:43.624Z,1013.18
2022-08-07T08:16:31.007Z,1013.11
2022-08-07T08:17:57.669Z,1013.12
2022-08-07T08:18:29.556Z,1013.07
2022-08-07T08:20:16.258Z,1013.08
2022-08-07T08:20:32.036Z,1013.10
2022-08-07T08:22:00.679Z,1013.12
2022-08-07T08:22:32.997Z,1013.12
2022-08-07T08:23:29.542Z,1013.14
2022-08-07T08:24:44.976Z,1013.16
2022-08-07T08:25:42.207Z,1013.17
2022-08-07T08:26:29.468Z,1013.22
2022-08-07T08:27:33.581Z,1013.19
2022-08-07T08:28:37.579Z,1013.21
2022-08-07T08:29:31.435Z,1013.21
2022-08-07T08:30:29.430Z,1013.21
2022-08-07T08:31:59.315Z,1013.18
2022-08-07T08:32:38.673Z,1013.16
2022-08-07T08:33:33.123Z,1013.13
2022-08-07T08:34:29.409Z,1013.15
2022-08-07T08:35:39.515Z,1013.13
2022-08-07T08:36:30.043Z,1013.12
2022-08-07T08:37:59.825Z,1013.11
2022-08-07T08:38:32.490Z,1013.08
2022-08-07T08:39:39.658Z,1013.08
2022-08-07T08:40:29.384Z,1013.05
2022-08-07T08:41:56.968Z,1013.01
2022-08-07T08:42:29.300Z,1013.10
2022-08-07T08:43:42.221Z,1013.09
2022-08-07T08:44:31.290Z,1013.07
2022-08-07T08:45:42.001Z,1013.05
2022-08-07T08:46:29.306Z,1013.04
2022-08-07T08:47:29.521Z,1013.04
2022-08-07T08:48:32.602Z,1013.04
2022-08-07T08:49:33.199Z,1013.05
2022-08-07T08:50:39.091Z,1013.03
2022-08-07T08:51:49.726Z,1013.02
2022-08-07T08:52:30.373Z,1013.00
2022-08-07T08:53:29.483Z,1013.03
2022-08-07T08:54:29.176Z,1013.00
2022-08-07T08:55:55.515Z,1013.03
2022-08-07T08:56:29.175Z,1012.99
2022-08-07T08:57:30.105Z,1012.96
2022-08-07T08:58:29.532Z,1013.01
2022-08-07T08:59:29.127Z,1012.97
2022-08-07T09:00:29.111Z,1012.94
2022-08-07T09:01:29.864Z,1012.95
2022-08-07T09:02:35.073Z,1012.97
2022-08-07T09:03:47.995Z,1012.96
2022-08-07T09:04:30.077Z,1012.98
2022-08-07T09:05:36.728Z,1013.01
2022-08-07T09:06:29.097Z,1013.03
2022-08-07T09:07:29.426Z,1013.01
2022-08-07T09:08:29.050Z,1013.01
2022-08-07T09:09:30.137Z,1013.01
2022-08-07T09:10:29.023Z,1013.04
2022-08-07T09:11:43.478Z,1013.05
2022-08-07T09:12:30.813Z,1013.02
2022-08-07T09:13:37.595Z,1013.08
2022-08-07T09:14:29.670Z,1013.02
2022-08-07T09:16:22.758Z,1013.08
2022-08-07T09:16:30.682Z,1013.05
2022-08-07T09:17:34.027Z,1013.09
2022-08-07T09:18:28.929Z,1013.07
2022-08-07T09:19:51.377Z,1013.07
2022-08-07T09:20:35.520Z,1013.07
2022-08-07T09:21:34.122Z,1013.03
2022-08-07T09:24:28.389Z,1013.00
2022-08-07T09:24:30.861Z,1013.01
2022-08-07T09:24:58.429Z,1013.01
2022-08-07T09:25:28.864Z,1012.97
2022-08-07T09:26:28.851Z,1012.98
2022-08-07T09:27:29.274Z,1013.01
2022-08-07T09:30:05.170Z,1012.95
2022-08-07T09:30:06.491Z,1012.98
2022-08-07T09:30:28.809Z,1013.02
2022-08-07T09:31:33.564Z,1012.93
2022-08-07T09:32:28.803Z,1012.92
2022-08-07T09:33:52.758Z,1012.86
2022-08-07T09:34:28.767Z,1012.88
2022-08-07T09:36:04.630Z,1012.85
2022-08-07T09:36:35.317Z,1012.81
2022-08-07T09:37:48.531Z,1012.82
2022-08-07T09:38:28.737Z,1012.87
2022-08-07T09:39:54.076Z,1012.79
2022-08-07T09:40:28.856Z,1012.77
2022-08-07T09:41:36.412Z,1012.76
2022-08-07T09:42:33.271Z,1012.75
2022-08-07T09:43:40.347Z,1012.74
2022-08-07T09:44:46.601Z,1012.69
2022-08-07T09:47:26.146Z,1012.66
2022-08-07T09:47:27.388Z,1012.56
2022-08-07T09:48:00.324Z,1012.55
2022-08-07T09:48:29.779Z,1012.54
2022-08-07T09:50:01.222Z,1012.43
2022-08-07T09:50:30.076Z,1012.44
2022-08-07T09:52:15.955Z,1012.46
2022-08-07T09:52:33.790Z,1012.41
2022-08-07T09:53:41.215Z,1012.44
2022-08-07T09:54:28.626Z,1012.44
2022-08-07T09:55:29.575Z,1012.37
2022-08-07T09:56:33.813Z,1012.40
2022-08-07T09:57:28.959Z,1012.35
2022-08-07T09:58:32.014Z,1012.36
2022-08-07T09:59:44.650Z,1012.31
2022-08-07T10:00:29.844Z,1012.26
2022-08-07T10:01:52.325Z,1012.25
2022-08-07T10:02:29.813Z,1012.17
2022-08-07T10:04:06.247Z,1012.13
2022-08-07T10:04:32.878Z,1012.11
2022-08-07T10:05:58.896Z,1012.10
2022-08-07T10:06:28.603Z,1012.09
2022-08-07T10:07:31.794Z,1012.05
2022-08-07T10:08:28.563Z,1012.00
2022-08-07T10:09:42.998Z,1011.96
2022-08-07T10:10:28.588Z,1012.00
2022-08-07T10:12:03.336Z,1011.96
2022-08-07T10:12:28.569Z,1011.93
2022-08-07T10:13:55.210Z,1011.85
2022-08-07T10:14:31.121Z,1011.87
2022-08-07T10:15:28.635Z,1011.83
2022-08-07T10:16:28.571Z,1011.82
2022-08-07T10:17:33.749Z,1011.77
2022-08-07T10:18:28.534Z,1011.79
2022-08-07T10:19:30.081Z,1011.78
2022-08-07T10:20:31.872Z,1011.75
2022-08-07T10:22:14.634Z,1011.73
2022-08-07T10:22:33.653Z,1011.76
2022-08-07T10:24:06.264Z,1011.72
2022-08-07T10:24:28.547Z,1011.67
2022-08-07T10:25:42.377Z,1011.71
2022-08-07T10:26:28.512Z,1011.69
2022-08-07T10:27:30.161Z,1011.69
2022-08-07T10:28:28.512Z,1011.66
2022-08-07T10:29:30.507Z,1011.65
2022-08-07T10:30:28.505Z,1011.55
2022-08-07T10:31:28.511Z,1011.56
2022-08-07T10:32:51.231Z,1011.60
2022-08-07T10:34:06.199Z,1011.65
2022-08-07T10:34:32.226Z,1011.53
2022-08-07T10:35:55.229Z,1011.59
2022-08-07T10:36:29.821Z,1011.54
2022-08-07T10:38:00.248Z,1011.56
2022-08-07T10:38:41.311Z,1011.49
2022-08-07T10:39:41.447Z,1011.52
2022-08-07T10:40:30.251Z,1011.49
2022-08-07T10:41:47.109Z,1011.51
2022-08-07T10:42:31.299Z,1011.50
2022-08-07T10:43:34.514Z,1011.55
2022-08-07T10:44:38.736Z,1011.53
2022-08-07T10:45:57.713Z,1011.54
2022-08-07T10:46:28.456Z,1011.54
2022-08-07T10:47:50.629Z,1011.49
2022-08-07T10:48:34.738Z,1011.51
2022-08-07T10:49:49.956Z,1011.52
2022-08-07T10:50:28.508Z,1011.52
2022-08-07T10:51:57.338Z,1011.52
2022-08-07T10:52:31.902Z,1011.52
2022-08-07T10:53:28.422Z,1011.52
2022-08-07T10:54:28.421Z,1011.52
2022-08-07T10:55:38.282Z,1011.50
2022-08-07T10:56:31.137Z,1011.55
2022-08-07T10:57:34.372Z,1011.55
2022-08-07T10:58:33.140Z,1011.51
2022-08-07T10:59:30.530Z,1011.56
2022-08-07T11:00:39.534Z,1011.45
2022-08-07T11:01:35.143Z,1011.44
2022-08-07T11:02:32.969Z,1011.50
2022-08-07T11:03:28.399Z,1011.46
2022-08-07T11:04:37.544Z,1011.50
2022-08-07T11:05:44.824Z,1011.52
2022-08-07T11:06:28.387Z,1011.49
2022-08-07T11:07:59.181Z,1011.48
2022-08-07T11:08:30.247Z,1011.50
2022-08-07T11:10:09.891Z,1011.47
2022-08-07T11:10:28.355Z,1011.47
2022-08-07T11:11:28.302Z,1011.42
2022-08-07T11:12:32.011Z,1011.51
2022-08-07T11:14:42.310Z,1011.46
2022-08-07T11:14:45.535Z,1011.43
2022-08-07T11:15:31.804Z,1011.41
2022-08-07T11:16:30.715Z,1011.39
2022-08-07T11:17:43.124Z,1011.35
2022-08-07T11:18:28.247Z,1011.28
2022-08-07T11:19:28.245Z,1011.39
2022-08-07T11:20:28.231Z,1011.38
2022-08-07T11:21:28.227Z,1011.37
2022-08-07T11:22:37.101Z,1011.39
2022-08-07T11:23:30.708Z,1011.32
2022-08-07T11:24:28.203Z,1011.33
2022-08-07T11:25:28.193Z,1011.35
2022-08-07T11:26:28.193Z,1011.29
2022-08-07T11:27:33.428Z,1011.27
2022-08-07T11:28:28.172Z,1011.27
2022-08-07T11:29:42.115Z,1011.31
2022-08-07T11:30:41.576Z,1011.34
2022-08-07T11:31:28.147Z,1011.30
2022-08-07T11:32:28.140Z,1011.31
2022-08-07T11:33:59.634Z,1011.31
2022-08-07T11:34:28.129Z,1011.37
2022-08-07T11:35:28.117Z,1011.37
2022-08-07T11:36:31.005Z,1011.36
2022-08-07T11:37:38.402Z,1011.37
2022-08-07T11:38:28.399Z,1011.34
2022-08-07T11:39:28.352Z,1011.34
2022-08-07T11:40:28.117Z,1011.37
2022-08-07T11:41:29.666Z,1011.34
2022-08-07T11:42:29.696Z,1011.30
2022-08-07T11:43:29.484Z,1011.31
2022-08-07T11:44:28.049Z,1011.25
2022-08-07T11:45:35.382Z,1011.30
2022-08-07T11:46:28.176Z,1011.29
2022-08-07T11:47:38.875Z,1011.30
2022-08-07T11:48:30.179Z,1011.27
2022-08-07T11:50:11.428Z,1011.19
2022-08-07T11:50:32.647Z,1011.26
2022-08-07T11:51:45.107Z,1011.17
2022-08-07T11:52:29.311Z,1011.16
2022-08-07T11:53:27.996Z,1011.04
2022-08-07T11:54:27.965Z,1011.08
2022-08-07T11:56:09.165Z,1011.06
2022-08-07T11:56:28.464Z,1011.06
2022-08-07T11:58:00.878Z,1011.08
2022-08-07T11:58:33.398Z,1011.13
2022-08-07T12:00:11.498Z,1011.09
2022-08-07T12:00:28.591Z,1011.09
2022-08-07T12:01:27.921Z,1011.08
2022-08-07T12:02:30.143Z,1011.09
2022-08-07T12:03:44.497Z,1011.05
2022-08-07T12:04:27.898Z,1011.04
2022-08-07T12:05:28.921Z,1011.07